sensor_id;sensor_type;location;lat;lon;timestamp;temperature;humidity
15357;DHT22;7778;48.792;9.260;2023-03-11T00:01:53;3.50;99.90
15357;DHT22;7778;48.792;9.260;2023-03-11T00:04:39;3.50;99.90
15357;DHT22;7778;48.792;9.260;2023-03-11T00:07:24;3.50;99.90
15357;DHT22;7778;48.792;9.260;2023-03-11T00:10:13;3.50;99.90
15357;DHT22;7778;48.792;9.260;2023-03-11T00:13:00;3.40;99.90
15357;DHT22;7778;48.792;9.260;2023-03-11T00:15:50;3.40;99.90
15357;DHT22;7778;48.792;9.260;2023-03-11T00:18:38;3.30;99.90
15357;DHT22;7778;48.792;9.260;2023-03-11T00:21:24;3.30;99.90
15357;DHT22;7778;48.792;9.260;2023-03-11T00:24:11;3.30;99.90
15357;DHT22;7778;48.792;9.260;2023-03-11T00:26:57;3.20;99.90
15357;DHT22;7778;48.792;9.260;2023-03-11T00:29:42;3.20;99.90
15357;DHT22;7778;48.792;9.260;2023-03-11T00:32:29;3.20;99.90
15357;DHT22;7778;48.792;9.260;2023-03-11T00:35:17;3.10;99.90
15357;DHT22;7778;48.792;9.260;2023-03-11T00:38:05;3.10;99.90
15357;DHT22;7778;48.792;9.260;2023-03-11T00:40:55;3.10;99.90
15357;DHT22;7778;48.792;9.260;2023-03-11T00:43:43;3.10;99.90
15357;DHT22;7778;48.792;9.260;2023-03-11T00:46:29;3.10;99.90
15357;DHT22;7778;48.792;9.260;2023-03-11T00:49:16;3.20;99.90
15357;DHT22;7778;48.792;9.260;2023-03-11T00:52:02;3.10;99.90
15357;DHT22;7778;48.792;9.260;2023-03-11T00:54:48;3.10;99.90
15357;DHT22;7778;48.792;9.260;2023-03-11T00:57:33;3.20;99.90
15357;DHT22;7778;48.792;9.260;2023-03-11T01:00:20;3.20;99.90
15357;DHT22;7778;48.792;9.260;2023-03-11T01:03:07;3.10;99.90
15357;DHT22;7778;48.792;9.260;2023-03-11T01:05:54;3.10;99.90
15357;DHT22;7778;48.792;9.260;2023-03-11T01:08:40;3.10;99.90
15357;DHT22;7778;48.792;9.260;2023-03-11T01:11:25;3.10;99.90
15357;DHT22;7778;48.792;9.260;2023-03-11T01:14:11;3.10;99.90
15357;DHT22;7778;48.792;9.260;2023-03-11T01:16:57;3.00;99.90
15357;DHT22;7778;48.792;9.260;2023-03-11T01:19:43;2.90;99.90
15357;DHT22;7778;48.792;9.260;2023-03-11T01:22:30;3.20;99.90
15357;DHT22;7778;48.792;9.260;2023-03-11T01:25:18;3.00;99.90
15357;DHT22;7778;48.792;9.260;2023-03-11T01:28:07;2.90;99.90
15357;DHT22;7778;48.792;9.260;2023-03-11T01:30:56;2.80;99.90
15357;DHT22;7778;48.792;9.260;2023-03-11T01:33:42;2.80;99.90
15357;DHT22;7778;48.792;9.260;2023-03-11T01:36:27;2.80;99.90
15357;DHT22;7778;48.792;9.260;2023-03-11T01:39:14;2.80;99.90
15357;DHT22;7778;48.792;9.260;2023-03-11T01:42:00;2.80;99.90
15357;DHT22;7778;48.792;9.260;2023-03-11T01:44:51;2.70;99.90
15357;DHT22;7778;48.792;9.260;2023-03-11T01:47:44;2.70;99.90
15357;DHT22;7778;48.792;9.260;2023-03-11T01:50:33;2.70;99.90
15357;DHT22;7778;48.792;9.260;2023-03-11T01:53:21;2.60;99.90
15357;DHT22;7778;48.792;9.260;2023-03-11T01:56:10;2.50;99.90
15357;DHT22;7778;48.792;9.260;2023-03-11T01:58:56;2.60;99.90
15357;DHT22;7778;48.792;9.260;2023-03-11T02:01:46;2.40;99.90
15357;DHT22;7778;48.792;9.260;2023-03-11T02:04:35;2.30;99.90
15357;DHT22;7778;48.792;9.260;2023-03-11T02:07:21;2.30;99.90
15357;DHT22;7778;48.792;9.260;2023-03-11T02:10:08;2.30;99.90
15357;DHT22;7778;48.792;9.260;2023-03-11T02:12:57;2.20;99.90
15357;DHT22;7778;48.792;9.260;2023-03-11T02:15:43;2.20;99.90
15357;DHT22;7778;48.792;9.260;2023-03-11T02:18:29;2.20;99.90
15357;DHT22;7778;48.792;9.260;2023-03-11T02:21:22;2.10;99.90
15357;DHT22;7778;48.792;9.260;2023-03-11T02:24:13;2.10;99.90
15357;DHT22;7778;48.792;9.260;2023-03-11T02:27:06;2.00;99.90
15357;DHT22;7778;48.792;9.260;2023-03-11T02:29:54;2.00;99.90
15357;DHT22;7778;48.792;9.260;2023-03-11T02:32:41;2.10;99.90
15357;DHT22;7778;48.792;9.260;2023-03-11T02:35:28;2.10;99.90
15357;DHT22;7778;48.792;9.260;2023-03-11T02:38:14;2.10;99.90
15357;DHT22;7778;48.792;9.260;2023-03-11T02:41:01;2.00;99.90
15357;DHT22;7778;48.792;9.260;2023-03-11T02:43:48;1.90;99.90
15357;DHT22;7778;48.792;9.260;2023-03-11T02:46:35;2.00;99.90
15357;DHT22;7778;48.792;9.260;2023-03-11T02:49:22;2.00;99.90
15357;DHT22;7778;48.792;9.260;2023-03-11T02:52:07;1.90;99.90
15357;DHT22;7778;48.792;9.260;2023-03-11T02:54:53;1.80;99.90
15357;DHT22;7778;48.792;9.260;2023-03-11T02:57:39;1.70;99.90
15357;DHT22;7778;48.792;9.260;2023-03-11T03:00:26;1.70;99.90
15357;DHT22;7778;48.792;9.260;2023-03-11T03:03:11;1.60;99.90
15357;DHT22;7778;48.792;9.260;2023-03-11T03:05:57;1.60;99.90
15357;DHT22;7778;48.792;9.260;2023-03-11T03:08:42;1.50;99.90
15357;DHT22;7778;48.792;9.260;2023-03-11T03:11:29;1.40;99.90
15357;DHT22;7778;48.792;9.260;2023-03-11T03:14:14;1.40;99.90
15357;DHT22;7778;48.792;9.260;2023-03-11T03:17:01;1.40;99.90
15357;DHT22;7778;48.792;9.260;2023-03-11T03:19:47;1.40;99.90
15357;DHT22;7778;48.792;9.260;2023-03-11T03:22:32;1.30;99.90
15357;DHT22;7778;48.792;9.260;2023-03-11T03:25:18;1.30;99.90
15357;DHT22;7778;48.792;9.260;2023-03-11T03:28:04;1.20;99.90
15357;DHT22;7778;48.792;9.260;2023-03-11T03:30:49;1.20;99.90
15357;DHT22;7778;48.792;9.260;2023-03-11T03:33:36;1.20;99.90
15357;DHT22;7778;48.792;9.260;2023-03-11T03:36:22;1.20;99.90
15357;DHT22;7778;48.792;9.260;2023-03-11T03:39:08;1.20;99.90
15357;DHT22;7778;48.792;9.260;2023-03-11T03:41:53;1.10;99.90
15357;DHT22;7778;48.792;9.260;2023-03-11T03:44:39;1.10;99.90
15357;DHT22;7778;48.792;9.260;2023-03-11T03:47:24;1.10;99.90
15357;DHT22;7778;48.792;9.260;2023-03-11T03:50:12;1.10;99.90
15357;DHT22;7778;48.792;9.260;2023-03-11T03:52:58;1.10;99.90
15357;DHT22;7778;48.792;9.260;2023-03-11T03:55:44;1.10;99.90
15357;DHT22;7778;48.792;9.260;2023-03-11T03:58:29;1.00;99.90
15357;DHT22;7778;48.792;9.260;2023-03-11T04:01:15;0.90;99.90
15357;DHT22;7778;48.792;9.260;2023-03-11T04:04:00;0.80;99.90
15357;DHT22;7778;48.792;9.260;2023-03-11T04:06:47;0.90;99.90
15357;DHT22;7778;48.792;9.260;2023-03-11T04:09:33;0.90;99.90
15357;DHT22;7778;48.792;9.260;2023-03-11T04:12:18;1.00;99.90
15357;DHT22;7778;48.792;9.260;2023-03-11T04:15:05;1.10;99.90
15357;DHT22;7778;48.792;9.260;2023-03-11T04:17:52;1.20;99.90
15357;DHT22;7778;48.792;9.260;2023-03-11T04:20:38;1.30;99.90
15357;DHT22;7778;48.792;9.260;2023-03-11T04:23:25;1.30;99.90
15357;DHT22;7778;48.792;9.260;2023-03-11T04:26:11;1.40;99.90
15357;DHT22;7778;48.792;9.260;2023-03-11T04:28:57;1.50;99.90
15357;DHT22;7778;48.792;9.260;2023-03-11T04:31:43;1.50;99.90
15357;DHT22;7778;48.792;9.260;2023-03-11T04:34:28;1.40;99.90
15357;DHT22;7778;48.792;9.260;2023-03-11T04:37:14;1.30;99.90
15357;DHT22;7778;48.792;9.260;2023-03-11T04:40:00;1.20;99.90
15357;DHT22;7778;48.792;9.260;2023-03-11T04:42:47;1.20;99.90
15357;DHT22;7778;48.792;9.260;2023-03-11T04:45:32;1.10;99.90
15357;DHT22;7778;48.792;9.260;2023-03-11T04:48:20;1.00;99.90
15357;DHT22;7778;48.792;9.260;2023-03-11T04:51:06;0.90;99.90
15357;DHT22;7778;48.792;9.260;2023-03-11T04:53:52;0.90;99.90
15357;DHT22;7778;48.792;9.260;2023-03-11T04:56:39;0.90;99.90
15357;DHT22;7778;48.792;9.260;2023-03-11T04:59:26;1.00;99.90
15357;DHT22;7778;48.792;9.260;2023-03-11T05:02:11;0.80;99.90
15357;DHT22;7778;48.792;9.260;2023-03-11T05:04:57;0.80;99.90
15357;DHT22;7778;48.792;9.260;2023-03-11T05:07:42;0.90;99.90
15357;DHT22;7778;48.792;9.260;2023-03-11T05:10:28;0.90;99.90
15357;DHT22;7778;48.792;9.260;2023-03-11T05:13:15;0.80;99.90
15357;DHT22;7778;48.792;9.260;2023-03-11T05:16:00;0.80;99.90
15357;DHT22;7778;48.792;9.260;2023-03-11T05:18:46;0.80;99.90
15357;DHT22;7778;48.792;9.260;2023-03-11T05:21:31;0.80;99.90
15357;DHT22;7778;48.792;9.260;2023-03-11T05:24:17;0.60;99.90
15357;DHT22;7778;48.792;9.260;2023-03-11T05:27:03;0.70;99.90
15357;DHT22;7778;48.792;9.260;2023-03-11T05:29:50;0.70;99.90
15357;DHT22;7778;48.792;9.260;2023-03-11T05:32:36;0.60;99.90
15357;DHT22;7778;48.792;9.260;2023-03-11T05:35:21;0.60;99.90
15357;DHT22;7778;48.792;9.260;2023-03-11T05:38:07;0.60;99.90
15357;DHT22;7778;48.792;9.260;2023-03-11T05:40:52;0.60;99.90
15357;DHT22;7778;48.792;9.260;2023-03-11T05:43:38;0.50;99.90
15357;DHT22;7778;48.792;9.260;2023-03-11T05:46:25;0.50;99.90
15357;DHT22;7778;48.792;9.260;2023-03-11T05:49:10;0.50;99.90
15357;DHT22;7778;48.792;9.260;2023-03-11T05:51:56;0.50;99.90
15357;DHT22;7778;48.792;9.260;2023-03-11T05:54:41;0.50;99.90
15357;DHT22;7778;48.792;9.260;2023-03-11T05:57:27;0.60;99.90
15357;DHT22;7778;48.792;9.260;2023-03-11T06:00:13;0.60;99.90
15357;DHT22;7778;48.792;9.260;2023-03-11T06:03:01;0.50;99.90
15357;DHT22;7778;48.792;9.260;2023-03-11T06:05:48;0.50;99.90
15357;DHT22;7778;48.792;9.260;2023-03-11T06:08:35;0.60;99.90
15357;DHT22;7778;48.792;9.260;2023-03-11T06:11:21;0.60;99.90
15357;DHT22;7778;48.792;9.260;2023-03-11T06:14:10;0.60;99.90
15357;DHT22;7778;48.792;9.260;2023-03-11T06:16:56;0.70;99.90
15357;DHT22;7778;48.792;9.260;2023-03-11T06:19:43;0.70;99.90
15357;DHT22;7778;48.792;9.260;2023-03-11T06:22:29;0.70;99.90
15357;DHT22;7778;48.792;9.260;2023-03-11T06:25:14;0.70;99.90
15357;DHT22;7778;48.792;9.260;2023-03-11T06:28:00;0.60;99.90
15357;DHT22;7778;48.792;9.260;2023-03-11T06:30:46;0.70;99.90
15357;DHT22;7778;48.792;9.260;2023-03-11T06:33:31;0.80;99.90
15357;DHT22;7778;48.792;9.260;2023-03-11T06:36:19;0.90;99.90
15357;DHT22;7778;48.792;9.260;2023-03-11T06:39:05;1.00;99.90
15357;DHT22;7778;48.792;9.260;2023-03-11T06:41:51;1.00;99.90
15357;DHT22;7778;48.792;9.260;2023-03-11T06:44:36;1.20;99.90
15357;DHT22;7778;48.792;9.260;2023-03-11T06:47:22;1.40;99.90
15357;DHT22;7778;48.792;9.260;2023-03-11T06:50:09;1.60;99.90
15357;DHT22;7778;48.792;9.260;2023-03-11T06:52:56;1.70;99.90
15357;DHT22;7778;48.792;9.260;2023-03-11T06:55:42;1.80;99.90
15357;DHT22;7778;48.792;9.260;2023-03-11T06:58:29;1.80;99.90
15357;DHT22;7778;48.792;9.260;2023-03-11T07:01:16;1.80;99.90
15357;DHT22;7778;48.792;9.260;2023-03-11T07:04:03;1.80;99.90
15357;DHT22;7778;48.792;9.260;2023-03-11T07:06:49;1.80;99.90
15357;DHT22;7778;48.792;9.260;2023-03-11T07:09:35;1.90;99.90
15357;DHT22;7778;48.792;9.260;2023-03-11T07:12:21;1.90;99.90
15357;DHT22;7778;48.792;9.260;2023-03-11T07:15:09;1.80;99.90
15357;DHT22;7778;48.792;9.260;2023-03-11T07:17:55;1.90;99.90
15357;DHT22;7778;48.792;9.260;2023-03-11T07:20:41;1.90;99.90
15357;DHT22;7778;48.792;9.260;2023-03-11T07:23:26;1.90;99.90
15357;DHT22;7778;48.792;9.260;2023-03-11T07:26:14;2.10;99.90
15357;DHT22;7778;48.792;9.260;2023-03-11T07:29:01;2.20;99.90
15357;DHT22;7778;48.792;9.260;2023-03-11T07:31:47;2.30;99.90
15357;DHT22;7778;48.792;9.260;2023-03-11T07:34:32;2.30;99.90
15357;DHT22;7778;48.792;9.260;2023-03-11T07:37:18;2.00;99.90
15357;DHT22;7778;48.792;9.260;2023-03-11T07:40:05;2.00;99.90
15357;DHT22;7778;48.792;9.260;2023-03-11T07:42:54;2.00;99.90
15357;DHT22;7778;48.792;9.260;2023-03-11T07:45:39;2.00;99.90
15357;DHT22;7778;48.792;9.260;2023-03-11T07:48:24;1.80;99.90
15357;DHT22;7778;48.792;9.260;2023-03-11T07:51:12;1.80;99.90
15357;DHT22;7778;48.792;9.260;2023-03-11T07:54:00;1.80;99.90
15357;DHT22;7778;48.792;9.260;2023-03-11T07:56:46;1.90;99.90
15357;DHT22;7778;48.792;9.260;2023-03-11T07:59:33;1.90;99.90
15357;DHT22;7778;48.792;9.260;2023-03-11T08:02:18;2.00;99.90
15357;DHT22;7778;48.792;9.260;2023-03-11T08:05:04;2.10;99.90
15357;DHT22;7778;48.792;9.260;2023-03-11T08:07:51;2.10;99.90
15357;DHT22;7778;48.792;9.260;2023-03-11T08:10:36;2.10;99.90
15357;DHT22;7778;48.792;9.260;2023-03-11T08:13:22;2.20;99.90
15357;DHT22;7778;48.792;9.260;2023-03-11T08:16:12;2.70;99.90
15357;DHT22;7778;48.792;9.260;2023-03-11T08:18:58;3.40;99.90
15357;DHT22;7778;48.792;9.260;2023-03-11T08:21:44;4.20;99.90
15357;DHT22;7778;48.792;9.260;2023-03-11T08:24:30;5.30;99.90
15357;DHT22;7778;48.792;9.260;2023-03-11T08:27:15;6.50;99.90
15357;DHT22;7778;48.792;9.260;2023-03-11T08:30:01;8.00;99.90
15357;DHT22;7778;48.792;9.260;2023-03-11T08:32:48;8.30;99.90
15357;DHT22;7778;48.792;9.260;2023-03-11T08:35:34;6.80;99.90
15357;DHT22;7778;48.792;9.260;2023-03-11T08:38:20;6.00;99.90
15357;DHT22;7778;48.792;9.260;2023-03-11T08:41:05;4.50;99.90
15357;DHT22;7778;48.792;9.260;2023-03-11T08:43:51;5.30;99.90
15357;DHT22;7778;48.792;9.260;2023-03-11T08:46:38;7.70;99.90
15357;DHT22;7778;48.792;9.260;2023-03-11T08:49:24;10.00;99.90
15357;DHT22;7778;48.792;9.260;2023-03-11T08:52:10;10.90;99.90
15357;DHT22;7778;48.792;9.260;2023-03-11T08:54:56;10.50;99.90
15357;DHT22;7778;48.792;9.260;2023-03-11T08:57:41;9.00;99.90
15357;DHT22;7778;48.792;9.260;2023-03-11T09:00:27;9.40;99.90
15357;DHT22;7778;48.792;9.260;2023-03-11T09:03:13;10.80;99.90
15357;DHT22;7778;48.792;9.260;2023-03-11T09:06:01;11.70;99.20
15357;DHT22;7778;48.792;9.260;2023-03-11T09:08:48;11.90;98.00
15357;DHT22;7778;48.792;9.260;2023-03-11T09:11:34;11.70;97.10
15357;DHT22;7778;48.792;9.260;2023-03-11T09:14:20;11.10;97.80
15357;DHT22;7778;48.792;9.260;2023-03-11T09:17:06;9.90;98.90
15357;DHT22;7778;48.792;9.260;2023-03-11T09:19:52;8.80;99.90
15357;DHT22;7778;48.792;9.260;2023-03-11T09:22:39;7.80;99.90
15357;DHT22;7778;48.792;9.260;2023-03-11T09:25:25;7.80;99.90
15357;DHT22;7778;48.792;9.260;2023-03-11T09:28:10;8.80;99.90
15357;DHT22;7778;48.792;9.260;2023-03-11T09:30:56;9.80;99.90
15357;DHT22;7778;48.792;9.260;2023-03-11T09:33:42;9.00;99.90
15357;DHT22;7778;48.792;9.260;2023-03-11T09:36:28;7.90;99.90
15357;DHT22;7778;48.792;9.260;2023-03-11T09:39:15;7.10;99.90
15357;DHT22;7778;48.792;9.260;2023-03-11T09:42:03;7.60;99.90
15357;DHT22;7778;48.792;9.260;2023-03-11T09:45:02;8.50;99.90
15357;DHT22;7778;48.792;9.260;2023-03-11T09:48:02;9.30;99.90
15357;DHT22;7778;48.792;9.260;2023-03-11T09:50:58;10.50;99.90
15357;DHT22;7778;48.792;9.260;2023-03-11T09:53:46;11.60;99.60
15357;DHT22;7778;48.792;9.260;2023-03-11T09:56:38;13.40;97.10
15357;DHT22;7778;48.792;9.260;2023-03-11T09:59:29;14.70;92.70
15357;DHT22;7778;48.792;9.260;2023-03-11T10:02:18;15.10;91.30
15357;DHT22;7778;48.792;9.260;2023-03-11T10:05:08;15.80;86.40
15357;DHT22;7778;48.792;9.260;2023-03-11T10:08:01;14.30;79.50
15357;DHT22;7778;48.792;9.260;2023-03-11T10:10:57;11.60;85.50
15357;DHT22;7778;48.792;9.260;2023-03-11T10:13:56;9.30;91.20
15357;DHT22;7778;48.792;9.260;2023-03-11T10:16:53;7.80;95.80
15357;DHT22;7778;48.792;9.260;2023-03-11T10:19:43;7.50;97.80
15357;DHT22;7778;48.792;9.260;2023-03-11T10:22:38;8.40;97.00
15357;DHT22;7778;48.792;9.260;2023-03-11T10:25:35;8.30;92.90
15357;DHT22;7778;48.792;9.260;2023-03-11T10:28:32;8.20;96.80
15357;DHT22;7778;48.792;9.260;2023-03-11T10:31:26;8.00;99.10
15357;DHT22;7778;48.792;9.260;2023-03-11T10:34:20;8.70;97.60
15357;DHT22;7778;48.792;9.260;2023-03-11T10:37:11;9.10;96.20
15357;DHT22;7778;48.792;9.260;2023-03-11T10:40:04;8.90;96.60
15357;DHT22;7778;48.792;9.260;2023-03-11T10:43:10;8.20;96.20
15357;DHT22;7778;48.792;9.260;2023-03-11T10:45:58;7.80;94.50
15357;DHT22;7778;48.792;9.260;2023-03-11T10:48:45;7.20;95.00
15357;DHT22;7778;48.792;9.260;2023-03-11T10:51:33;7.20;96.50
15357;DHT22;7778;48.792;9.260;2023-03-11T10:54:23;7.30;95.00
15357;DHT22;7778;48.792;9.260;2023-03-11T10:57:23;7.00;94.80
15357;DHT22;7778;48.792;9.260;2023-03-11T11:00:14;7.10;95.70
15357;DHT22;7778;48.792;9.260;2023-03-11T11:03:19;8.10;92.90
15357;DHT22;7778;48.792;9.260;2023-03-11T11:06:19;8.70;94.60
15357;DHT22;7778;48.792;9.260;2023-03-11T11:09:15;8.60;91.30
15357;DHT22;7778;48.792;9.260;2023-03-11T11:12:04;8.40;91.10
15357;DHT22;7778;48.792;9.260;2023-03-11T11:14:54;8.30;89.90
15357;DHT22;7778;48.792;9.260;2023-03-11T11:17:39;7.60;93.20
15357;DHT22;7778;48.792;9.260;2023-03-11T11:20:25;6.90;94.20
15357;DHT22;7778;48.792;9.260;2023-03-11T11:23:25;6.60;95.80
15357;DHT22;7778;48.792;9.260;2023-03-11T11:26:18;6.60;99.30
15357;DHT22;7778;48.792;9.260;2023-03-11T11:29:11;6.60;96.60
15357;DHT22;7778;48.792;9.260;2023-03-11T11:32:18;6.40;96.30
15357;DHT22;7778;48.792;9.260;2023-03-11T11:35:10;7.20;97.40
15357;DHT22;7778;48.792;9.260;2023-03-11T11:38:00;8.40;92.90
15357;DHT22;7778;48.792;9.260;2023-03-11T11:40:49;9.50;91.90
15357;DHT22;7778;48.792;9.260;2023-03-11T11:43:45;10.40;86.00
15357;DHT22;7778;48.792;9.260;2023-03-11T11:46:37;10.90;91.20
15357;DHT22;7778;48.792;9.260;2023-03-11T11:49:27;11.50;91.20
15357;DHT22;7778;48.792;9.260;2023-03-11T11:52:16;11.60;89.60
15357;DHT22;7778;48.792;9.260;2023-03-11T11:55:07;10.80;84.90
15357;DHT22;7778;48.792;9.260;2023-03-11T11:58:07;10.00;86.90
15357;DHT22;7778;48.792;9.260;2023-03-11T12:01:15;9.50;91.50
15357;DHT22;7778;48.792;9.260;2023-03-11T12:04:26;9.10;90.30
15357;DHT22;7778;48.792;9.260;2023-03-11T12:07:43;8.30;92.00
15357;DHT22;7778;48.792;9.260;2023-03-11T12:10:38;8.20;93.50
15357;DHT22;7778;48.792;9.260;2023-03-11T12:13:49;8.50;92.50
15357;DHT22;7778;48.792;9.260;2023-03-11T12:16:46;9.00;89.00
15357;DHT22;7778;48.792;9.260;2023-03-11T12:19:39;8.40;91.60
15357;DHT22;7778;48.792;9.260;2023-03-11T12:23:01;7.90;90.30
15357;DHT22;7778;48.792;9.260;2023-03-11T12:26:13;7.70;91.80
15357;DHT22;7778;48.792;9.260;2023-03-11T12:29:05;7.80;93.50
15357;DHT22;7778;48.792;9.260;2023-03-11T12:31:55;8.10;93.70
15357;DHT22;7778;48.792;9.260;2023-03-11T12:34:41;8.30;92.30
15357;DHT22;7778;48.792;9.260;2023-03-11T12:37:27;8.40;92.60
15357;DHT22;7778;48.792;9.260;2023-03-11T12:40:43;8.10;89.60
15357;DHT22;7778;48.792;9.260;2023-03-11T12:44:12;8.10;91.10
15357;DHT22;7778;48.792;9.260;2023-03-11T12:47:23;8.30;91.10
15357;DHT22;7778;48.792;9.260;2023-03-11T12:50:37;8.00;90.50
15357;DHT22;7778;48.792;9.260;2023-03-11T12:53:41;7.70;92.50
15357;DHT22;7778;48.792;9.260;2023-03-11T12:56:31;7.60;91.00
15357;DHT22;7778;48.792;9.260;2023-03-11T12:59:47;7.70;93.40
15357;DHT22;7778;48.792;9.260;2023-03-11T13:03:22;8.40;94.20
15357;DHT22;7778;48.792;9.260;2023-03-11T13:06:33;9.00;93.40
15357;DHT22;7778;48.792;9.260;2023-03-11T13:09:26;9.40;90.60
15357;DHT22;7778;48.792;9.260;2023-03-11T13:12:37;8.80;89.00
15357;DHT22;7778;48.792;9.260;2023-03-11T13:15:32;8.60;93.20
15357;DHT22;7778;48.792;9.260;2023-03-11T13:18:22;8.60;93.00
15357;DHT22;7778;48.792;9.260;2023-03-11T13:21:37;8.40;92.50
15357;DHT22;7778;48.792;9.260;2023-03-11T13:24:47;8.40;94.20
15357;DHT22;7778;48.792;9.260;2023-03-11T13:27:40;8.60;91.60
15357;DHT22;7778;48.792;9.260;2023-03-11T13:30:33;8.60;91.40
15357;DHT22;7778;48.792;9.260;2023-03-11T13:33:28;8.40;92.70
15357;DHT22;7778;48.792;9.260;2023-03-11T13:36:43;8.60;93.70
15357;DHT22;7778;48.792;9.260;2023-03-11T13:39:44;8.50;92.10
15357;DHT22;7778;48.792;9.260;2023-03-11T13:42:42;8.30;90.70
15357;DHT22;7778;48.792;9.260;2023-03-11T13:45:32;7.80;90.00
15357;DHT22;7778;48.792;9.260;2023-03-11T13:48:23;7.40;90.70
15357;DHT22;7778;48.792;9.260;2023-03-11T13:51:14;7.50;92.40
15357;DHT22;7778;48.792;9.260;2023-03-11T13:54:04;7.60;91.80
15357;DHT22;7778;48.792;9.260;2023-03-11T13:56:57;7.50;93.10
15357;DHT22;7778;48.792;9.260;2023-03-11T13:59:43;7.50;92.40
15357;DHT22;7778;48.792;9.260;2023-03-11T14:02:30;7.40;92.00
15357;DHT22;7778;48.792;9.260;2023-03-11T14:05:18;7.30;93.60
15357;DHT22;7778;48.792;9.260;2023-03-11T14:08:11;7.30;95.00
15357;DHT22;7778;48.792;9.260;2023-03-11T14:10:59;7.20;94.80
15357;DHT22;7778;48.792;9.260;2023-03-11T14:13:48;7.10;93.90
15357;DHT22;7778;48.792;9.260;2023-03-11T14:16:36;7.10;93.50
15357;DHT22;7778;48.792;9.260;2023-03-11T14:19:28;7.10;93.50
15357;DHT22;7778;48.792;9.260;2023-03-11T14:22:14;7.30;95.20
15357;DHT22;7778;48.792;9.260;2023-03-11T14:25:04;7.20;92.80
15357;DHT22;7778;48.792;9.260;2023-03-11T14:27:54;7.00;93.40
15357;DHT22;7778;48.792;9.260;2023-03-11T14:30:54;6.70;94.00
15357;DHT22;7778;48.792;9.260;2023-03-11T14:33:40;6.70;94.30
15357;DHT22;7778;48.792;9.260;2023-03-11T14:36:27;6.70;94.10
15357;DHT22;7778;48.792;9.260;2023-03-11T14:39:27;6.50;92.80
15357;DHT22;7778;48.792;9.260;2023-03-11T14:42:19;6.60;95.80
15357;DHT22;7778;48.792;9.260;2023-03-11T14:45:12;6.60;96.40
15357;DHT22;7778;48.792;9.260;2023-03-11T14:48:02;6.70;96.20
15357;DHT22;7778;48.792;9.260;2023-03-11T14:50:55;6.90;94.80
15357;DHT22;7778;48.792;9.260;2023-03-11T14:53:46;6.90;94.80
15357;DHT22;7778;48.792;9.260;2023-03-11T14:56:37;6.80;93.70
15357;DHT22;7778;48.792;9.260;2023-03-11T14:59:27;6.80;94.70
15357;DHT22;7778;48.792;9.260;2023-03-11T15:02:32;6.80;95.20
15357;DHT22;7778;48.792;9.260;2023-03-11T15:05:26;7.00;94.80
15357;DHT22;7778;48.792;9.260;2023-03-11T15:08:17;6.90;95.60
15357;DHT22;7778;48.792;9.260;2023-03-11T15:11:19;7.10;95.80
15357;DHT22;7778;48.792;9.260;2023-03-11T15:14:18;7.50;96.20
15357;DHT22;7778;48.792;9.260;2023-03-11T15:17:15;7.50;95.10
15357;DHT22;7778;48.792;9.260;2023-03-11T15:20:02;7.30;96.50
15357;DHT22;7778;48.792;9.260;2023-03-11T15:22:53;7.20;97.10
15357;DHT22;7778;48.792;9.260;2023-03-11T15:25:48;7.00;97.00
15357;DHT22;7778;48.792;9.260;2023-03-11T15:28:36;7.10;99.90
15357;DHT22;7778;48.792;9.260;2023-03-11T15:31:29;7.10;98.00
15357;DHT22;7778;48.792;9.260;2023-03-11T15:34:26;7.10;98.20
15357;DHT22;7778;48.792;9.260;2023-03-11T15:37:18;7.00;97.30
15357;DHT22;7778;48.792;9.260;2023-03-11T15:40:17;7.10;97.70
15357;DHT22;7778;48.792;9.260;2023-03-11T15:43:19;7.30;96.80
15357;DHT22;7778;48.792;9.260;2023-03-11T15:46:09;7.20;95.60
15357;DHT22;7778;48.792;9.260;2023-03-11T15:48:55;7.00;97.60
15357;DHT22;7778;48.792;9.260;2023-03-11T15:51:40;6.60;98.50
15357;DHT22;7778;48.792;9.260;2023-03-11T15:54:26;6.50;98.20
15357;DHT22;7778;48.792;9.260;2023-03-11T15:57:18;6.60;98.90
15357;DHT22;7778;48.792;9.260;2023-03-11T16:00:14;6.70;97.00
15357;DHT22;7778;48.792;9.260;2023-03-11T16:03:04;6.60;98.90
15357;DHT22;7778;48.792;9.260;2023-03-11T16:05:49;7.10;99.90
15357;DHT22;7778;48.792;9.260;2023-03-11T16:08:36;6.80;99.90
15357;DHT22;7778;48.792;9.260;2023-03-11T16:11:21;6.40;99.90
15357;DHT22;7778;48.792;9.260;2023-03-11T16:14:09;6.10;99.90
15357;DHT22;7778;48.792;9.260;2023-03-11T16:16:59;5.90;99.90
15357;DHT22;7778;48.792;9.260;2023-03-11T16:19:46;5.60;99.90
15357;DHT22;7778;48.792;9.260;2023-03-11T16:22:33;5.60;99.90
15357;DHT22;7778;48.792;9.260;2023-03-11T16:25:22;5.70;99.90
15357;DHT22;7778;48.792;9.260;2023-03-11T16:28:12;5.70;99.90
15357;DHT22;7778;48.792;9.260;2023-03-11T16:30:58;5.60;99.90
15357;DHT22;7778;48.792;9.260;2023-03-11T16:33:44;5.60;99.90
15357;DHT22;7778;48.792;9.260;2023-03-11T16:36:30;5.60;99.90
15357;DHT22;7778;48.792;9.260;2023-03-11T16:39:16;5.60;99.90
15357;DHT22;7778;48.792;9.260;2023-03-11T16:42:02;5.50;99.90
15357;DHT22;7778;48.792;9.260;2023-03-11T16:44:47;5.50;99.90
15357;DHT22;7778;48.792;9.260;2023-03-11T16:47:33;5.40;99.90
15357;DHT22;7778;48.792;9.260;2023-03-11T16:50:18;5.20;99.90
15357;DHT22;7778;48.792;9.260;2023-03-11T16:53:09;5.20;99.90
15357;DHT22;7778;48.792;9.260;2023-03-11T16:55:54;5.10;99.90
15357;DHT22;7778;48.792;9.260;2023-03-11T16:58:40;5.00;99.90
15357;DHT22;7778;48.792;9.260;2023-03-11T17:01:26;4.90;99.90
15357;DHT22;7778;48.792;9.260;2023-03-11T17:04:11;5.00;99.90
15357;DHT22;7778;48.792;9.260;2023-03-11T17:06:57;5.00;99.90
15357;DHT22;7778;48.792;9.260;2023-03-11T17:09:45;5.00;99.90
15357;DHT22;7778;48.792;9.260;2023-03-11T17:12:30;5.00;99.90
15357;DHT22;7778;48.792;9.260;2023-03-11T17:15:16;5.00;99.90
15357;DHT22;7778;48.792;9.260;2023-03-11T17:18:02;5.10;99.90
15357;DHT22;7778;48.792;9.260;2023-03-11T17:20:48;5.00;99.90
15357;DHT22;7778;48.792;9.260;2023-03-11T17:23:34;5.00;99.90
15357;DHT22;7778;48.792;9.260;2023-03-11T17:26:21;4.90;99.90
15357;DHT22;7778;48.792;9.260;2023-03-11T17:29:07;4.80;99.90
15357;DHT22;7778;48.792;9.260;2023-03-11T17:31:52;4.90;99.90
15357;DHT22;7778;48.792;9.260;2023-03-11T17:34:38;4.60;99.90
15357;DHT22;7778;48.792;9.260;2023-03-11T17:37:23;4.50;99.90
15357;DHT22;7778;48.792;9.260;2023-03-11T17:40:10;4.50;99.90
15357;DHT22;7778;48.792;9.260;2023-03-11T17:42:58;4.40;99.90
15357;DHT22;7778;48.792;9.260;2023-03-11T17:45:43;4.40;99.90
15357;DHT22;7778;48.792;9.260;2023-03-11T17:48:29;4.30;99.90
15357;DHT22;7778;48.792;9.260;2023-03-11T17:51:16;4.10;99.90
15357;DHT22;7778;48.792;9.260;2023-03-11T17:54:03;4.20;99.90
15357;DHT22;7778;48.792;9.260;2023-03-11T17:56:49;4.00;99.90
15357;DHT22;7778;48.792;9.260;2023-03-11T17:59:36;3.90;99.90
15357;DHT22;7778;48.792;9.260;2023-03-11T18:02:22;3.90;99.90
15357;DHT22;7778;48.792;9.260;2023-03-11T18:05:07;3.80;99.90
15357;DHT22;7778;48.792;9.260;2023-03-11T18:07:53;3.90;99.90
15357;DHT22;7778;48.792;9.260;2023-03-11T18:10:38;3.90;99.90
15357;DHT22;7778;48.792;9.260;2023-03-11T18:13:24;3.90;99.90
15357;DHT22;7778;48.792;9.260;2023-03-11T18:16:13;3.90;99.90
15357;DHT22;7778;48.792;9.260;2023-03-11T18:19:00;3.80;99.90
15357;DHT22;7778;48.792;9.260;2023-03-11T18:21:45;3.70;99.90
15357;DHT22;7778;48.792;9.260;2023-03-11T18:24:31;3.60;99.90